Time;durP1;ratioP1;P1;durP2;ratioP2;P2;SDS_P1;SDS_P2;PMS_P1;PMS_P2;Temp;Humidity;BMP_temperature;BMP_pressure;BME280_temperature;BME280_humidity;BME280_pressure;Samples;Min_cycle;Max_cycle;Signal;HPM_P1;HPM_P2
2023/10/27 00:00:05;;;;;;;14.87;6.67;;;;;;;9.88;100.00;99127.91;4995323;28;20037;-86
2023/10/27 00:02:38;;;;;;;14.15;6.53;;;;;;;9.91;100.00;99128.72;4995268;28;20030;-86
2023/10/27 00:05:04;;;;;;;13.07;6.00;;;;;;;9.89;100.00;99127.00;4994458;28;20103;-87
2023/10/27 00:07:30;;;;;;;10.80;5.45;;;;;;;9.89;100.00;99132.19;4995474;28;20121;-87
2023/10/27 00:09:55;;;;;;;13.63;6.30;;;;;;;9.91;100.00;99131.28;5006598;28;20157;-86
2023/10/27 00:12:20;;;;;;;12.67;5.80;;;;;;;9.90;100.00;99133.06;5013242;28;20053;-87
2023/10/27 00:14:46;;;;;;;11.23;5.27;;;;;;;9.89;100.00;99121.84;5014521;28;20112;-87
2023/10/27 00:17:11;;;;;;;9.43;4.60;;;;;;;9.90;100.00;99117.50;5014576;28;20105;-87
2023/10/27 00:19:36;;;;;;;13.57;5.97;;;;;;;9.95;100.00;99131.09;5013925;28;20033;-86
2023/10/27 00:22:02;;;;;;;14.97;6.43;;;;;;;9.95;100.00;99125.09;5014294;28;20493;-87
2023/10/27 00:24:27;;;;;;;12.10;5.53;;;;;;;9.95;100.00;99125.09;5013772;28;20072;-87
2023/10/27 00:26:52;;;;;;;11.67;5.43;;;;;;;9.95;100.00;99123.34;5013924;28;20030;-87
2023/10/27 00:29:18;;;;;;;11.80;5.60;;;;;;;9.92;100.00;99113.09;5014211;28;20026;-87
2023/10/27 00:31:43;;;;;;;14.83;6.60;;;;;;;9.93;100.00;99111.34;5013638;28;20099;-86
2023/10/27 00:34:08;;;;;;;13.07;5.93;;;;;;;9.94;100.00;99111.28;5014140;28;20092;-86
2023/10/27 00:36:33;;;;;;;13.63;6.10;;;;;;;9.94;100.00;99108.69;5014101;28;20117;-86
2023/10/27 00:38:59;;;;;;;13.57;6.30;;;;;;;9.93;100.00;99103.56;5012994;28;20029;-86
2023/10/27 00:41:24;;;;;;;11.77;5.73;;;;;;;9.92;100.00;99104.47;5014216;28;20021;-87
2023/10/27 00:43:49;;;;;;;13.83;6.60;;;;;;;9.95;100.00;99107.78;5013916;28;20455;-86
2023/10/27 00:46:15;;;;;;;12.17;5.53;;;;;;;9.92;100.00;99102.72;5013455;28;20026;-86
2023/10/27 00:48:40;;;;;;;12.23;6.13;;;;;;;9.97;100.00;99108.56;5014035;28;20113;-87
2023/10/27 00:51:06;;;;;;;11.10;5.43;;;;;;;9.95;100.00;99102.59;5014192;28;20021;-86
2023/10/27 00:53:32;;;;;;;9.87;5.00;;;;;;;9.89;100.00;99089.91;5013224;28;20045;-87
2023/10/27 00:55:58;;;;;;;9.18;4.60;;;;;;;9.97;100.00;99105.13;5013669;28;20033;-87
2023/10/27 00:58:23;;;;;;;8.83;4.60;;;;;;;9.98;100.00;99102.47;5013944;28;20032;-87
2023/10/27 01:00:50;;;;;;;7.13;4.23;;;;;;;9.99;100.00;99105.91;5013067;28;20159;-87
2023/10/27 01:03:15;;;;;;;;;;;;;;;10.02;100.00;99105.78;5013923;28;20026;-86
2023/10/27 01:05:40;;;;;;;9.87;4.60;;;;;;;10.01;100.00;99097.19;5013342;28;19914;-86
2023/10/27 01:08:06;;;;;;;9.53;4.23;;;;;;;10.01;100.00;99093.72;5012397;28;20030;-86
2023/10/27 01:10:32;;;;;;;7.13;4.00;;;;;;;10.00;100.00;99090.31;5013585;28;20036;-86
2023/10/27 01:12:57;;;;;;;6.50;3.53;;;;;;;10.01;100.00;99099.78;5013601;28;20041;-87
2023/10/27 01:15:22;;;;;;;7.10;4.00;;;;;;;10.01;100.00;99094.59;5012802;28;20076;-87
2023/10/27 01:17:48;;;;;;;10.00;4.60;;;;;;;10.00;100.00;99092.03;5013295;28;20026;-87
2023/10/27 01:20:13;;;;;;;10.47;4.87;;;;;;;10.00;100.00;99092.03;5012992;28;20482;-86
2023/10/27 01:22:47;;;;;;;7.43;4.27;;;;;;;9.98;100.00;99086.94;5012813;28;20034;-86
2023/10/27 01:25:12;;;;;;;6.35;3.45;;;;;;;9.99;100.00;99086.03;5013696;28;20049;-87
2023/10/27 01:27:38;;;;;;;7.53;4.20;;;;;;;10.04;100.00;99093.63;5013158;28;20061;-86
2023/10/27 01:30:04;;;;;;;8.93;4.20;;;;;;;10.03;100.00;99095.34;5013460;28;20459;-87
2023/10/27 01:32:29;;;;;;;7.25;3.90;;;;;;;10.04;100.00;99096.22;5013043;28;20072;-87
2023/10/27 01:34:54;;;;;;;8.73;4.60;;;;;;;10.04;100.00;99091.84;5012375;28;20042;-87
2023/10/27 01:37:20;;;;;;;8.07;4.07;;;;;;;10.02;100.00;99092.84;5013321;28;20030;-86
2023/10/27 01:39:47;;;;;;;9.07;4.33;;;;;;;10.03;100.00;99091.94;5013282;28;20061;-87
2023/10/27 01:42:12;;;;;;;;;;;;;;;10.05;100.00;99090.94;5013258;28;20041;-86
2023/10/27 01:44:37;;;;;;;11.67;5.27;;;;;;;10.07;100.00;99087.44;5013178;28;20278;-86
2023/10/27 01:47:09;;;;;;;11.47;5.83;;;;;;;10.04;100.00;99086.66;5012805;28;20030;-87
2023/10/27 01:49:34;;;;;;;15.38;6.50;;;;;;;10.03;100.00;99089.34;5012524;28;20065;-86
2023/10/27 01:51:59;;;;;;;10.70;5.33;;;;;;;9.97;100.00;99074.88;5012643;28;20510;-86
2023/10/27 01:54:24;;;;;;;10.90;5.27;;;;;;;10.01;100.00;99080.78;5012713;28;20050;-87
2023/10/27 01:56:50;;;;;;;9.77;4.93;;;;;;;10.02;100.00;99083.28;5012181;28;20026;-86
2023/10/27 01:59:15;;;;;;;8.40;4.30;;;;;;;10.00;100.00;99071.31;5012749;28;20054;-87
2023/10/27 02:01:40;;;;;;;6.97;3.83;;;;;;;10.02;100.00;99078.09;5012342;28;20522;-86
2023/10/27 02:04:06;;;;;;;6.10;3.70;;;;;;;10.03;100.00;99079.78;5012104;28;20026;-86
2023/10/27 02:06:31;;;;;;;4.80;3.20;;;;;;;10.05;100.00;99078.00;5012878;28;20026;-87
2023/10/27 02:08:56;;;;;;;5.00;3.20;;;;;;;10.07;100.00;99070.16;5012807;28;20034;-86
2023/10/27 02:11:23;;;;;;;7.60;3.87;;;;;;;10.07;100.00;99074.50;5012499;28;20052;-86
2023/10/27 02:13:49;;;;;;;8.60;4.15;;;;;;;10.07;100.00;99067.56;5012742;28;20044;-87
2023/10/27 02:16:14;;;;;;;7.93;4.53;;;;;;;10.08;100.00;99071.00;5012994;28;20046;-87
2023/10/27 02:18:39;;;;;;;5.63;3.50;;;;;;;10.08;100.00;99069.22;5012113;28;20367;-86
2023/10/27 02:21:05;;;;;;;6.37;3.73;;;;;;;10.03;100.00;99053.88;5012763;28;20426;-87
2023/10/27 02:23:30;;;;;;;6.33;3.50;;;;;;;10.08;100.00;99065.81;5013166;28;20494;-87
2023/10/27 02:25:55;;;;;;;5.63;3.80;;;;;;;10.04;100.00;99057.34;5011726;28;20022;-87
2023/10/27 02:28:20;;;;;;;4.20;3.10;;;;;;;10.05;100.00;99059.03;5012666;28;20026;-85
2023/10/27 02:30:46;;;;;;;5.40;3.20;;;;;;;10.04;100.00;99062.50;5011783;28;20034;-86
2023/10/27 02:33:13;;;;;;;5.00;3.10;;;;;;;10.01;100.00;99053.13;5015680;28;20022;-87
2023/10/27 02:35:38;;;;;;;7.78;4.18;;;;;;;10.02;100.00;99052.19;5016340;28;20456;-86
2023/10/27 02:38:04;;;;;;;6.53;3.80;;;;;;;9.98;100.00;99047.19;5015746;28;20053;-87
2023/10/27 02:40:30;;;;;;;5.57;3.20;;;;;;;10.03;100.00;99055.66;5016521;28;20019;-87
2023/10/27 02:42:55;;;;;;;5.83;3.47;;;;;;;10.01;100.00;99047.09;5016369;28;20036;-87
2023/10/27 02:45:21;;;;;;;5.23;3.17;;;;;;;9.96;100.00;99043.84;5015784;28;20280;-87
2023/10/27 02:47:46;;;;;;;5.83;3.17;;;;;;;9.99;100.00;99049.75;5015992;28;20022;-87
2023/10/27 02:50:12;;;;;;;7.17;3.20;;;;;;;9.97;100.00;99046.38;5016203;28;20022;-86
2023/10/27 02:52:37;;;;;;;4.83;2.90;;;;;;;9.96;100.00;99042.09;5015259;28;20050;-87
2023/10/27 02:55:02;;;;;;;4.57;2.70;;;;;;;9.94;100.00;99045.66;5015077;28;20038;-86
2023/10/27 02:57:28;;;;;;;4.87;2.87;;;;;;;9.97;100.00;99042.91;5015605;28;20029;-87
2023/10/27 02:59:53;;;;;;;3.97;2.60;;;;;;;9.92;100.00;99031.91;5014783;28;20068;-87
2023/10/27 03:02:18;;;;;;;4.70;2.90;;;;;;;9.98;100.00;99040.28;5016120;28;20033;-86
2023/10/27 03:04:44;;;;;;;3.67;2.77;;;;;;;9.93;100.00;99028.44;5015705;28;20026;-86
2023/10/27 03:07:09;;;;;;;4.13;2.70;;;;;;;9.97;100.00;99029.97;5015073;28;20033;-87
2023/10/27 03:09:34;;;;;;;3.43;2.50;;;;;;;9.98;100.00;99040.28;5016047;28;20018;-87
2023/10/27 03:11:59;;;;;;;3.27;2.37;;;;;;;9.97;100.00;99033.41;5015529;28;20053;-87
2023/10/27 03:14:25;;;;;;;3.30;2.40;;;;;;;9.96;100.00;99034.31;5015349;28;20092;-86
2023/10/27 03:16:50;;;;;;;4.63;3.30;;;;;;;9.97;100.00;99036.00;5015716;28;20378;-86
2023/10/27 03:19:15;;;;;;;5.50;3.37;;;;;;;9.93;100.00;99037.03;5015630;28;20026;-87
2023/10/27 03:21:41;;;;;;;7.13;3.67;;;;;;;9.94;100.00;99035.31;5014298;28;20046;-87
2023/10/27 03:24:06;;;;;;;5.73;3.37;;;;;;;9.91;100.00;99025.06;5015131;28;20121;-87
2023/10/27 03:26:32;;;;;;;4.67;2.90;;;;;;;9.95;100.00;99031.81;5015710;28;20017;-87
2023/10/27 03:28:57;;;;;;;5.77;2.87;;;;;;;9.95;100.00;99029.22;5014513;28;20127;-87
2023/10/27 03:31:22;;;;;;;4.30;2.77;;;;;;;9.97;100.00;99032.56;5015673;28;20034;-87
2023/10/27 03:33:48;;;;;;;4.00;2.67;;;;;;;9.98;100.00;99031.66;5014996;28;20037;-87
2023/10/27 03:36:13;;;;;;;3.83;2.73;;;;;;;9.95;100.00;99018.84;5014678;28;20034;-87
2023/10/27 03:38:38;;;;;;;4.80;2.53;;;;;;;9.96;100.00;99023.97;5015723;28;20026;-87
2023/10/27 03:41:03;;;;;;;5.87;3.00;;;;;;;9.98;100.00;99029.91;5015354;28;20029;-87
2023/10/27 03:43:29;;;;;;;4.93;2.70;;;;;;;9.95;100.00;99017.09;5014168;28;20037;-87
2023/10/27 03:45:54;;;;;;;3.73;2.57;;;;;;;9.88;100.00;99006.13;5015218;28;20045;-86
2023/10/27 03:48:19;;;;;;;4.40;2.70;;;;;;;10.00;100.00;99027.25;5014340;28;20034;-86
2023/10/27 03:50:45;;;;;;;5.97;3.40;;;;;;;9.95;100.00;99016.25;5014537;28;20026;-86
2023/10/27 03:53:10;;;;;;;5.90;3.10;;;;;;;9.84;100.00;99004.59;5018512;28;20081;-86
2023/10/27 03:55:35;;;;;;;4.13;2.70;;;;;;;9.91;100.00;99019.88;5014048;28;20042;-87
2023/10/27 03:58:17;;;;;;;3.43;2.60;;;;;;;9.92;100.00;99018.97;5014756;28;20030;-86
2023/10/27 04:00:43;;;;;;;6.32;3.00;;;;;;;9.89;100.00;99018.19;5014342;28;20363;-87
2023/10/27 04:03:09;;;;;;;4.53;2.73;;;;;;;9.88;100.00;99013.06;5014071;28;20021;-86
2023/10/27 04:05:34;;;;;;;5.10;2.80;;;;;;;9.89;100.00;99015.59;5014854;28;20022;-86
2023/10/27 04:08:00;;;;;;;5.67;2.87;;;;;;;9.83;100.00;99002.91;5014043;28;20018;-86
2023/10/27 04:10:25;;;;;;;4.57;2.70;;;;;;;9.85;100.00;99008.84;5013761;28;20034;-86
2023/10/27 04:12:51;;;;;;;5.23;2.70;;;;;;;9.87;100.00;99009.63;5014269;28;20050;-86
2023/10/27 04:15:16;;;;;;;3.83;2.57;;;;;;;9.88;100.00;99008.72;5014545;28;20026;-86
2023/10/27 04:17:41;;;;;;;3.63;2.50;;;;;;;9.85;100.00;99006.25;5013620;28;20268;-86
2023/10/27 04:20:07;;;;;;;2.77;2.40;;;;;;;9.89;100.00;99010.41;5014420;28;20544;-87
2023/10/27 04:22:33;;;;;;;2.73;2.30;;;;;;;9.91;100.00;99012.09;5013746;28;20030;-86
2023/10/27 04:24:59;;;;;;;3.03;2.30;;;;;;;9.92;100.00;99009.44;5013630;28;20017;-86
2023/10/27 04:27:25;;;;;;;4.57;2.80;;;;;;;9.97;100.00;99017.00;5014504;28;20030;-86
2023/10/27 04:29:50;;;;;;;4.77;2.60;;;;;;;9.92;100.00;99017.19;5014144;28;20021;-86
2023/10/27 04:32:21;;;;;;;2.87;2.30;;;;;;;9.95;100.00;99018.84;5013563;28;20029;-86
2023/10/27 04:34:46;;;;;;;2.95;2.20;;;;;;;9.86;100.00;99007.94;5013868;28;20056;-86
2023/10/27 04:37:12;;;;;;;3.07;2.10;;;;;;;9.93;100.00;99013.72;5014384;28;20029;-86
2023/10/27 04:39:37;;;;;;;2.80;2.17;;;;;;;9.92;100.00;99008.59;5013551;28;20032;-86
2023/10/27 04:42:02;;;;;;;3.33;2.20;;;;;;;9.95;100.00;99022.25;5013873;28;20038;-86
2023/10/27 04:44:28;;;;;;;2.80;2.03;;;;;;;9.96;100.00;99017.94;5013707;28;20022;-86
2023/10/27 04:46:56;;;;;;;3.60;2.40;;;;;;;9.94;100.00;99020.56;5012556;28;20493;-87
2023/10/27 04:49:21;;;;;;;2.80;2.40;;;;;;;9.94;100.00;99025.75;5014180;28;20087;-86
2023/10/27 04:51:46;;;;;;;3.73;2.50;;;;;;;9.95;100.00;99022.25;5013097;28;20026;-86
2023/10/27 04:54:12;;;;;;;2.50;2.20;;;;;;;9.88;100.00;99010.50;5012952;28;20103;-86
2023/10/27 04:56:37;;;;;;;3.47;2.30;;;;;;;9.95;100.00;99017.09;5013936;28;20029;-86
2023/10/27 04:59:03;;;;;;;2.77;2.23;;;;;;;9.96;100.00;99020.53;5012778;28;20033;-87
2023/10/27 05:01:28;;;;;;;3.87;2.30;;;;;;;9.96;100.00;99018.78;5014066;28;20026;-87
2023/10/27 05:03:54;;;;;;;3.07;2.30;;;;;;;9.94;100.00;99018.00;5013268;28;20021;-85
2023/10/27 05:06:19;;;;;;;2.53;2.20;;;;;;;9.95;100.00;99008.47;5012586;28;20033;-85
2023/10/27 05:08:45;;;;;;;2.50;2.17;;;;;;;9.96;100.00;99013.59;5012652;28;20049;-86
2023/10/27 05:11:11;;;;;;;2.42;2.10;;;;;;;9.98;100.00;99011.78;5013578;28;20026;-87
2023/10/27 05:13:36;;;;;;;2.33;2.00;;;;;;;9.91;100.00;98999.97;5013165;28;20104;-86
2023/10/27 05:16:03;;;;;;;4.17;2.03;;;;;;;9.96;100.00;99007.56;5013170;28;20426;-86
2023/10/27 05:18:28;;;;;;;2.03;1.90;;;;;;;9.96;100.00;99007.56;5013559;28;20025;-86
2023/10/27 05:20:54;;;;;;;3.23;2.30;;;;;;;9.91;100.00;99009.50;5012469;28;20030;-86
2023/10/27 05:23:19;;;;;;;6.67;3.30;;;;;;;9.85;100.00;99005.41;5013360;28;20034;-86
2023/10/27 05:25:45;;;;;;;5.17;3.27;;;;;;;9.77;100.00;98997.13;5012754;28;20110;-86
2023/10/27 05:28:10;;;;;;;5.90;3.20;;;;;;;9.74;100.00;98998.94;5012739;28;20034;-86
2023/10/27 05:30:44;;;;;;;8.70;4.23;;;;;;;9.72;100.00;99003.34;5012450;28;20041;-86
2023/10/27 05:33:09;;;;;;;5.40;3.38;;;;;;;9.70;100.00;98996.53;5012777;28;20030;-86
2023/10/27 05:35:35;;;;;;;4.83;3.00;;;;;;;9.69;100.00;98998.28;5010023;28;20030;-85
2023/10/27 05:38:03;;;;;;;4.97;2.90;;;;;;;9.69;100.00;99002.63;5010118;28;20054;-85
2023/10/27 05:40:31;;;;;;;6.63;3.35;;;;;;;9.67;100.00;98992.34;5010467;28;20060;-85
2023/10/27 05:42:57;;;;;;;7.68;3.90;;;;;;;9.62;100.00;98991.69;5012240;28;20052;-86
2023/10/27 05:45:25;;;;;;;10.30;4.60;;;;;;;9.58;100.00;98993.56;5012836;28;20033;-86
2023/10/27 05:47:50;;;;;;;11.32;5.20;;;;;;;9.54;100.00;98988.56;5012498;28;20026;-85
2023/10/27 05:50:15;;;;;;;10.63;4.70;;;;;;;9.52;100.00;98980.84;5013217;28;20071;-86
2023/10/27 05:52:41;;;;;;;10.30;4.90;;;;;;;9.53;100.00;98989.47;5012225;28;20648;-84
2023/10/27 05:55:06;;;;;;;7.17;4.03;;;;;;;9.53;100.00;98995.47;5012359;28;20248;-85
2023/10/27 05:57:32;;;;;;;10.07;4.63;;;;;;;9.52;100.00;98990.38;5012744;28;20029;-86
2023/10/27 05:59:58;;;;;;;9.63;4.67;;;;;;;9.53;100.00;98994.66;5012760;28;20028;-85
2023/10/27 06:02:23;;;;;;;7.43;4.33;;;;;;;9.52;100.00;98988.59;5012498;28;20018;-86
2023/10/27 06:04:48;;;;;;;8.17;4.17;;;;;;;9.53;100.00;98999.81;5012736;28;20032;-86
2023/10/27 06:07:15;;;;;;;5.43;3.50;;;;;;;9.54;100.00;98996.34;5016661;28;20108;-86
2023/10/27 06:09:41;;;;;;;;;;;;;;;9.57;100.00;98996.19;5016127;28;20490;-87
2023/10/27 06:12:09;;;;;;;5.53;3.33;;;;;;;9.57;100.00;98991.88;5016858;28;19941;-86
2023/10/27 06:14:35;;;;;;;4.57;2.92;;;;;;;9.61;100.00;98997.75;5016580;28;20030;-86
2023/10/27 06:17:01;;;;;;;3.73;2.73;;;;;;;9.62;100.00;98994.25;5015564;28;20030;-86
2023/10/27 06:19:26;;;;;;;3.50;2.70;;;;;;;9.65;100.00;99001.91;5016957;28;20451;-85
2023/10/27 06:21:59;;;;;;;5.53;3.17;;;;;;;9.66;100.00;99003.59;5016328;28;20026;-85
2023/10/27 06:24:24;;;;;;;6.00;3.47;;;;;;;9.63;100.00;98998.53;5015862;28;20034;-85
2023/10/27 06:26:49;;;;;;;11.57;4.83;;;;;;;9.57;100.00;98996.19;5016302;28;20496;-85
2023/10/27 06:29:15;;;;;;;6.47;3.53;;;;;;;9.59;100.00;98999.56;5016595;28;20030;-86
2023/10/27 06:31:40;;;;;;;6.67;4.13;;;;;;;9.56;100.00;99000.53;5015630;28;20026;-86
2023/10/27 06:34:08;;;;;;;9.07;4.30;;;;;;;9.50;100.00;98999.94;5016631;28;20037;-86
2023/10/27 06:36:34;;;;;;;6.47;3.80;;;;;;;9.58;100.00;99008.22;5016232;28;20037;-86
2023/10/27 06:38:59;;;;;;;4.80;3.30;;;;;;;9.53;100.00;98994.66;5015255;28;20033;-86
2023/10/27 06:41:30;;;;;;;4.17;2.90;;;;;;;9.59;100.00;98999.56;5016768;28;20022;-86
2023/10/27 06:44:08;;;;;;;3.22;2.50;;;;;;;9.61;100.00;99007.28;5016033;28;20037;-86
2023/10/27 06:46:33;;;;;;;3.75;2.30;;;;;;;9.67;100.00;99015.66;5016206;28;20045;-87
2023/10/27 06:48:59;;;;;;;3.43;2.50;;;;;;;9.69;100.00;99016.41;5016291;28;20042;-86
2023/10/27 06:51:24;;;;;;;2.63;2.27;;;;;;;9.73;100.00;99020.56;5015125;28;20402;-86
2023/10/27 06:53:49;;;;;;;2.33;2.10;;;;;;;9.78;100.00;99019.56;5015802;28;20129;-86
2023/10/27 06:56:14;;;;;;;4.17;3.00;;;;;;;9.75;100.00;99023.09;5016177;28;20010;-87
2023/10/27 06:58:43;;;;;;;5.70;3.50;;;;;;;9.74;100.00;99030.03;5016055;28;20036;-86
2023/10/27 07:01:08;;;;;;;5.32;3.13;;;;;;;9.73;100.00;99030.09;5016169;28;20037;-87
2023/10/27 07:03:35;;;;;;;3.70;2.60;;;;;;;9.72;100.00;99031.84;5016147;28;20386;-86
2023/10/27 07:06:01;;;;;;;2.90;2.25;;;;;;;9.75;100.00;99030.84;5014956;28;20034;-86
2023/10/27 07:08:26;;;;;;;2.77;2.30;;;;;;;9.78;100.00;99028.16;5016100;28;20029;-87
2023/10/27 07:10:58;;;;;;;2.23;2.03;;;;;;;9.78;100.00;99027.31;5015841;28;20029;-87
2023/10/27 07:13:28;;;;;;;2.13;1.90;;;;;;;9.83;100.00;99040.91;5015540;28;20423;-87
2023/10/27 07:15:53;;;;;;;2.30;2.10;;;;;;;9.85;100.00;99039.94;5015775;28;20092;-87
2023/10/27 07:18:19;;;;;;;2.43;2.13;;;;;;;9.86;100.00;99044.22;5015801;28;20471;-88
2023/10/27 07:20:44;;;;;;;2.03;1.75;;;;;;;9.88;100.00;99041.56;5014568;28;20363;-87
2023/10/27 07:23:10;;;;;;;2.20;2.00;;;;;;;9.86;100.00;99030.44;5016137;28;20040;-86
2023/10/27 07:25:35;;;;;;;2.10;2.00;;;;;;;9.87;100.00;99034.72;5015492;28;20079;-87
2023/10/27 07:28:01;;;;;;;2.23;1.90;;;;;;;9.86;100.00;99038.19;5006202;28;20022;-86
2023/10/27 07:30:26;;;;;;;2.00;1.90;;;;;;;9.89;100.00;99043.28;5015262;28;20462;-84
2023/10/27 07:32:51;;;;;;;2.20;2.00;;;;;;;9.89;100.00;99044.09;5014670;28;20037;-85
2023/10/27 07:35:17;;;;;;;2.67;2.23;;;;;;;9.90;100.00;99039.78;5014037;28;20041;-85
2023/10/27 07:37:42;;;;;;;2.90;2.20;;;;;;;9.88;100.00;99042.41;5014119;28;20030;-85
2023/10/27 07:40:08;;;;;;;2.33;2.10;;;;;;;9.91;100.00;99050.97;5015135;28;20026;-85
2023/10/27 07:42:33;;;;;;;2.00;1.90;;;;;;;9.97;100.00;99051.56;5014417;28;20030;-85
2023/10/27 07:44:59;;;;;;;1.80;1.70;;;;;;;10.00;100.00;99056.63;5014778;28;20596;-84
2023/10/27 07:47:24;;;;;;;2.00;1.90;;;;;;;10.04;100.00;99060.75;5014387;28;20049;-84
2023/10/27 07:49:50;;;;;;;1.70;1.60;;;;;;;10.07;100.00;99059.81;5014042;28;20119;-87
2023/10/27 07:52:15;;;;;;;1.60;1.50;;;;;;;10.10;100.00;99064.84;5015032;28;20053;-86
2023/10/27 07:54:40;;;;;;;1.87;1.60;;;;;;;10.16;100.00;99074.09;5012462;28;20045;-86
2023/10/27 07:57:05;;;;;;;2.27;1.83;;;;;;;10.15;100.00;99059.44;5014723;28;20041;-87
2023/10/27 07:59:31;;;;;;;1.60;1.50;;;;;;;10.16;100.00;99064.59;5015207;28;20475;-86
2023/10/27 08:01:59;;;;;;;2.27;1.90;;;;;;;10.16;100.00;99069.78;5014203;28;20030;-87
2023/10/27 08:04:25;;;;;;;1.60;1.50;;;;;;;10.13;100.00;99066.47;5015023;28;20030;-87
2023/10/27 08:06:52;;;;;;;1.70;1.33;;;;;;;10.13;100.00;99079.44;5014222;28;20026;-87
2023/10/27 08:09:18;;;;;;;1.60;1.50;;;;;;;10.16;100.00;99077.56;5014296;28;20069;-87
2023/10/27 08:11:43;;;;;;;1.33;1.23;;;;;;;10.17;100.00;99071.47;5014897;28;20026;-87
2023/10/27 08:14:08;;;;;;;1.60;1.50;;;;;;;10.20;100.00;99078.25;5014791;28;20053;-87
2023/10/27 08:16:34;;;;;;;1.23;1.20;;;;;;;10.22;100.00;99062.63;5013680;28;20112;-86
2023/10/27 08:18:59;;;;;;;1.70;1.60;;;;;;;10.20;100.00;99062.72;5014128;28;20034;-86
2023/10/27 08:21:25;;;;;;;1.60;1.50;;;;;;;10.17;100.00;99063.69;5014267;28;20382;-86
2023/10/27 08:23:51;;;;;;;1.70;1.60;;;;;;;10.17;100.00;99049.88;5013830;28;20030;-88
2023/10/27 08:26:16;;;;;;;1.50;1.40;;;;;;;10.19;100.00;99067.03;5014749;28;20030;-88
2023/10/27 08:28:42;;;;;;;1.60;1.50;;;;;;;10.21;100.00;99079.97;5014399;28;20041;-88
2023/10/27 08:31:09;;;;;;;1.43;1.33;;;;;;;10.16;100.00;99069.78;5014204;28;20029;-87
2023/10/27 08:33:34;;;;;;;1.70;1.60;;;;;;;10.23;100.00;99085.06;5014678;28;20025;-87
2023/10/27 08:36:03;;;;;;;1.50;1.40;;;;;;;10.27;100.00;99097.00;5014475;28;20072;-88
2023/10/27 08:38:29;;;;;;;1.88;1.50;;;;;;;10.25;100.00;99096.22;5014574;28;20018;-90
2023/10/27 08:40:55;;;;;;;1.60;1.50;;;;;;;10.28;100.00;99101.28;5014747;28;20033;-90
2023/10/27 08:43:22;;;;;;;1.20;1.20;;;;;;;10.22;100.00;99092.00;5014808;28;20022;-91
2023/10/27 08:45:48;;;;;;;1.90;1.80;;;;;;;10.22;100.00;99094.59;5015249;28;20034;-92
2023/10/27 08:48:19;;;;;;;1.80;1.70;;;;;;;10.23;100.00;99098.03;5014975;28;20014;-91
2023/10/27 08:50:45;;;;;;;2.03;1.83;;;;;;;10.25;100.00;99094.44;5014411;28;20026;-89
2023/10/27 08:53:15;;;;;;;1.70;1.60;;;;;;;10.29;100.00;99103.81;5014337;28;20071;-88
2023/10/27 08:55:41;;;;;;;2.00;1.75;;;;;;;10.31;100.00;99103.72;5015204;28;20071;-91
2023/10/27 08:58:06;;;;;;;1.70;1.60;;;;;;;10.31;100.00;99095.94;5014838;28;20026;-92
2023/10/27 09:00:32;;;;;;;1.60;1.50;;;;;;;10.30;100.00;99094.28;5014673;28;20033;-91
2023/10/27 09:02:57;;;;;;;2.17;1.90;;;;;;;10.32;100.00;99098.50;5014672;28;20029;-95
2023/10/27 09:05:24;;;;;;;2.00;1.90;;;;;;;10.32;100.00;99090.72;5014647;28;20022;-95
2023/10/27 09:07:50;;;;;;;1.90;1.80;;;;;;;10.40;100.00;99103.41;5015016;28;20097;-93
2023/10/27 09:10:18;;;;;;;1.80;1.70;;;;;;;10.45;100.00;99110.97;5014953;28;20093;-94
2023/10/27 09:12:44;;;;;;;1.80;1.70;;;;;;;10.47;100.00;99114.34;5014430;28;20022;-96
2023/10/27 09:15:13;;;;;;;1.80;1.70;;;;;;;10.47;100.00;99112.59;5015541;28;20018;-94
2023/10/27 09:17:56;;;;;;;1.52;1.42;;;;;;;10.53;100.00;99116.66;5015708;28;20014;-96
2023/10/27 09:20:23;;;;;;;1.63;1.52;;;;;;;10.52;100.00;99111.56;5019485;28;20026;-96
2023/10/27 09:23:09;;;;;;;1.48;1.38;;;;;;;10.54;100.00;99120.94;5020475;28;20029;-96
2023/10/27 09:25:34;;;;;;;1.27;1.23;;;;;;;10.54;100.00;99110.56;5017236;28;20030;-94
2023/10/27 09:28:05;;;;;;;1.40;1.30;;;;;;;10.53;100.00;99101.09;5022624;28;20067;-96
2023/10/27 09:30:33;;;;;;;1.45;1.35;;;;;;;10.54;100.00;99104.53;5030150;28;20081;-96
2023/10/27 09:33:26;;;;;;;1.42;1.33;;;;;;;10.55;100.00;99107.06;5029874;28;20045;-96
2023/10/27 09:35:53;;;;;;;1.80;1.70;;;;;;;10.59;100.00;99120.75;5019454;28;20025;-96
2023/10/27 09:38:20;;;;;;;1.50;1.40;;;;;;;10.64;100.00;99122.25;5017362;28;20026;-96
2023/10/27 09:40:46;;;;;;;1.50;1.40;;;;;;;10.68;100.00;99116.94;5018939;28;20021;-96
2023/10/27 09:43:17;;;;;;;1.50;1.40;;;;;;;10.69;100.00;99116.03;5018725;28;20367;-96
2023/10/27 09:45:57;;;;;;;2.40;2.20;;;;;;;10.65;100.00;99110.94;5018355;28;20029;-96
2023/10/27 09:48:25;;;;;;;2.95;2.45;;;;;;;10.58;100.00;99106.09;5017283;28;20025;-95
2023/10/27 09:50:57;;;;;;;2.00;1.85;;;;;;;10.69;100.00;99122.03;5016283;28;20022;-96
2023/10/27 09:53:26;;;;;;;2.13;1.98;;;;;;;10.71;100.00;99119.38;5014722;28;20038;-96
2023/10/27 09:55:52;;;;;;;1.80;1.70;;;;;;;10.78;100.00;99118.22;5015838;28;20034;-96
2023/10/27 09:58:20;;;;;;;1.80;1.70;;;;;;;10.77;100.00;99114.75;5015375;28;20089;-96
2023/10/27 10:00:46;;;;;;;1.85;1.60;;;;;;;10.82;100.00;99110.22;5014060;28;20026;-95
2023/10/27 10:03:11;;;;;;;2.15;1.95;;;;;;;10.78;100.00;99095.69;5013844;28;20486;-96
2023/10/27 10:06:24;;;;;;;2.20;2.00;;;;;;;10.85;100.00;99101.44;5014402;28;20032;-96
2023/10/27 10:09:05;;;;;;;2.00;1.80;;;;;;;10.91;100.00;99100.34;5014971;28;20144;-95
2023/10/27 10:11:36;;;;;;;1.73;1.60;;;;;;;10.97;100.00;99111.28;5018453;28;20486;-93
2023/10/27 10:14:02;;;;;;;2.10;1.58;;;;;;;11.01;100.00;99114.56;5013886;28;20077;-93
2023/10/27 10:16:27;;;;;;;1.47;1.37;;;;;;;11.07;100.00;99121.25;5014171;28;20494;-94
2023/10/27 10:18:55;;;;;;;1.73;1.63;;;;;;;11.10;100.00;99128.91;5014678;28;20101;-94
2023/10/27 10:21:43;;;;;;;1.83;1.40;;;;;;;11.18;100.00;99142.38;5014132;28;20070;-95
2023/10/27 10:24:08;;;;;;;1.50;1.40;;;;;;;11.18;100.00;99134.59;5013664;28;20026;-94
2023/10/27 10:27:02;;;;;;;1.40;1.30;;;;;;;11.21;100.00;99143.97;5022773;28;20025;-94
2023/10/27 10:29:28;;;;;;;1.40;1.30;;;;;;;11.21;100.00;99141.38;5023494;28;20042;-94
2023/10/27 10:32:30;;;;;;;2.78;2.10;;;;;;;11.14;100.00;99138.25;5013932;28;20033;-95
2023/10/27 10:35:21;;;;;;;3.83;2.17;;;;;;;11.08;100.00;99143.72;5013561;28;20032;-94
2023/10/27 10:37:48;;;;;;;2.35;2.00;;;;;;;11.05;100.00;99139.50;5013720;28;20029;-95
2023/10/27 10:40:22;;;;;;;1.85;1.75;;;;;;;11.05;100.00;99141.25;5014047;28;20048;-94
2023/10/27 10:43:16;;;;;;;1.80;1.70;;;;;;;11.01;100.00;99142.31;5013762;28;20077;-93
2023/10/27 10:45:45;;;;;;;2.30;2.10;;;;;;;10.96;100.00;99139.91;5013726;28;20026;-93
2023/10/27 10:48:12;;;;;;;3.05;2.35;;;;;;;10.89;100.00;99139.34;5013984;28;20079;-92
2023/10/27 10:50:37;;;;;;;;;;;;;;;10.86;100.00;99139.47;5013691;28;20072;-92
2023/10/27 10:53:16;;;;;;;5.53;3.13;;;;;;;10.81;100.00;99131.88;5014437;28;20374;-93
2023/10/27 10:55:46;;;;;;;4.57;3.10;;;;;;;10.77;100.00;99134.69;5016348;28;20018;-93
2023/10/27 10:58:26;;;;;;;4.50;2.80;;;;;;;10.79;100.00;99135.47;5016393;28;20125;-93
2023/10/27 11:00:52;;;;;;;5.28;3.10;;;;;;;10.73;100.00;99131.38;5016866;28;20034;-95
2023/10/27 11:03:22;;;;;;;10.50;4.82;;;;;;;10.67;100.00;99131.63;5017556;28;20026;-95
2023/10/27 11:05:50;;;;;;;8.93;4.30;;;;;;;10.65;100.00;99131.72;5017119;28;20060;-94
2023/10/27 11:08:28;;;;;;;6.95;3.67;;;;;;;10.65;100.00;99136.03;5016855;28;20026;-95
2023/10/27 11:11:07;;;;;;;6.55;3.63;;;;;;;10.66;100.00;99130.81;5012115;28;20014;-95
2023/10/27 11:13:39;;;;;;;5.30;3.30;;;;;;;10.67;100.00;99129.03;5016386;28;20370;-95
2023/10/27 11:16:13;;;;;;;5.90;3.22;;;;;;;10.72;100.00;99127.09;5017445;28;20461;-93
2023/10/27 11:18:39;;;;;;;4.38;2.85;;;;;;;10.79;100.00;99125.09;5017197;28;20069;-95
2023/10/27 11:21:04;;;;;;;9.77;3.87;;;;;;;10.82;100.00;99127.53;5016566;28;20061;-94
2023/10/27 11:23:31;;;;;;;6.67;3.90;;;;;;;10.85;100.00;99135.19;5016132;28;20026;-95
2023/10/27 11:26:03;;;;;;;;;;;;;;;10.92;100.00;99130.56;5016563;28;20558;-93
2023/10/27 11:28:29;;;;;;;7.20;4.10;;;;;;;10.97;100.00;99128.63;5015715;28;19920;-88